Time;durP1;ratioP1;P1;durP2;ratioP2;P2;SDS_P1;SDS_P2;PMS_P1;PMS_P2;Temp;Humidity;BMP_temperature;BMP_pressure;BME280_temperature;BME280_humidity;BME280_pressure;Samples;Min_cycle;Max_cycle;Signal;HPM_P1;HPM_P2
2023/03/18 00:02:10;;;;;;;;;;;;;;;9.47;45.90;101091.44;5016517;28;20296;-82
2023/03/18 00:05:01;;;;;;;;;;;;;;;9.41;45.60;101091.53;5011751;28;19922;-82
2023/03/18 00:07:57;;;;;;;;;;;;;;;9.50;45.51;101090.84;5018560;28;19921;-82
2023/03/18 00:10:58;;;;;;;;;;;;;;;9.42;45.51;101098.56;5021217;28;19922;-81
2023/03/18 00:13:59;;;;;;;;;;;;;;;9.39;45.67;101096.47;5023549;28;19921;-82
2023/03/18 00:16:48;;;;;;;;;;;;;;;9.43;45.65;101091.22;5026915;28;19909;-82
2023/03/18 00:19:51;;;;;;;;;;;;;;;9.31;45.55;101097.13;5037870;28;19925;-82
2023/03/18 00:22:38;;;;;;;;;;;;;;;9.30;45.75;101092.78;5033504;28;19922;-81
2023/03/18 00:25:43;;;;;;;;;;;;;;;9.28;45.83;101084.16;5026949;28;19922;-81
2023/03/18 00:28:35;;;;;;;;;;;;;;;9.31;45.66;101088.19;5021646;28;19922;-80
2023/03/18 00:31:22;;;;;;;;;;;;;;;9.33;45.69;101080.56;5002616;28;19925;-82
2023/03/18 00:34:13;;;;;;;;;;;;;;;9.28;46.07;101094.22;5024971;28;19921;-81
2023/03/18 00:37:29;;;;;;;;;;;;;;;9.31;46.20;101086.28;5015228;28;19902;-82
2023/03/18 00:40:19;;;;;;;;;;;;;;;9.32;46.25;101078.94;5023799;28;19906;-81
2023/03/18 00:43:20;;;;;;;;;;;;;;;9.35;46.17;101076.44;5033616;28;20303;-81
2023/03/18 00:46:15;;;;;;;;;;;;;;;9.35;46.13;101076.44;4998925;28;19910;-82
2023/03/18 00:49:11;;;;;;;;;;;;;;;9.21;46.39;101067.44;5031809;28;19925;-81
2023/03/18 00:52:09;;;;;;;;;;;;;;;9.25;46.35;101068.47;5025518;28;19922;-81
2023/03/18 00:54:58;;;;;;;;;;;;;;;9.20;46.58;101073.16;5028705;28;19906;-81
2023/03/18 00:58:14;;;;;;;;;;;;;;;9.04;47.27;101061.75;5015289;28;19918;-83
2023/03/18 01:05:59;;;;;;;;;;;;;;;9.17;47.61;101060.19;4967570;28;19914;-82
2023/03/18 01:26:25;;;;;;;;;;;;;;;9.12;46.92;101036.69;5031935;28;19922;-82
2023/03/18 01:29:34;;;;;;;;;;;;;;;8.99;47.31;101032.00;5016328;28;19917;-81
2023/03/18 01:32:45;;;;;;;;;;;;;;;9.05;47.23;101024.59;4991646;28;19922;-81
2023/03/18 01:38:45;;;;;;;;;;;;;;;8.90;47.52;101020.22;4933397;29;19923;-80
2023/03/18 01:42:35;;;;;;;;;;;;;;;8.90;47.60;101020.22;4935692;29;19923;-80
2023/03/18 01:46:04;;;;;;;;;;;;;;;8.76;48.38;101014.75;4958161;29;19915;-80
2023/03/18 01:49:33;;;;;;;;;;;;;;;8.76;48.54;101008.53;4972959;29;19922;-80
2023/03/18 01:56:00;;;;;;;;;;;;;;;8.61;49.08;101008.78;4976316;29;19914;-80
2023/03/18 01:58:56;;;;;;;;;;;;;;;8.54;49.42;101009.94;4967248;28;19915;-81
2023/03/18 02:05:42;;;;;;;;;;;;;;;8.48;49.85;101000.28;4962341;29;19914;-81
2023/03/18 02:08:34;;;;;;;;;;;;;;;8.55;49.35;101000.72;4977330;28;19923;-81
2023/03/18 02:11:27;;;;;;;;;;;;;;;8.47;49.89;100993.25;4962765;28;19918;-82
2023/03/18 02:14:21;;;;;;;;;;;;;;;8.44;49.67;100990.31;4937832;28;19915;-81
2023/03/18 02:17:16;;;;;;;;;;;;;;;8.62;49.53;100992.22;4949955;29;19915;-81
2023/03/18 02:20:19;;;;;;;;;;;;;;;8.67;49.72;100980.50;4960038;29;19915;-81
2023/03/18 02:23:26;;;;;;;;;;;;;;;8.34;50.81;100977.72;4957346;29;19915;-82
2023/03/18 02:26:43;;;;;;;;;;;;;;;8.22;51.04;100976.53;4955765;29;19914;-80
2023/03/18 02:29:36;;;;;;;;;;;;;;;8.24;50.81;100977.84;4927411;29;20386;-81
2023/03/18 02:32:36;;;;;;;;;;;;;;;8.21;51.12;100973.03;4932304;28;19918;-81
2023/03/18 02:35:29;;;;;;;;;;;;;;;8.27;50.87;100971.88;4962646;28;20294;-81
2023/03/18 02:41:23;;;;;;;;;;;;;;;8.20;51.39;100970.59;5272140;23;19906;-84
2023/03/18 02:47:22;;;;;;;;;;;;;;;8.34;50.99;100976.91;5123444;23;19905;-86
2023/03/18 02:53:13;;;;;;;;;;;;;;;8.47;50.96;100976.19;5030141;28;19905;-86
2023/03/18 02:56:05;;;;;;;;;;;;;;;8.58;50.61;100966.81;5022484;28;19901;-85
2023/03/18 02:59:24;;;;;;;;;;;;;;;8.42;50.98;100963.53;5020172;28;19897;-86
2023/03/18 03:02:16;;;;;;;;;;;;;;;8.38;51.45;100964.41;5034735;28;19901;-86
2023/03/18 03:05:06;;;;;;;;;;;;;;;8.52;51.03;100963.38;5025346;28;20137;-85
2023/03/18 03:07:58;;;;;;;;;;;;;;;8.55;51.15;100961.97;5021459;28;19905;-85
2023/03/18 03:13:47;;;;;;;;;;;;;;;8.21;51.40;100964.91;5252822;22;19905;-86
2023/03/18 03:16:36;;;;;;;;;;;;;;;8.29;51.65;100963.41;5038786;28;19901;-85
2023/03/18 03:19:26;;;;;;;;;;;;;;;8.23;51.29;100959.19;5026400;28;19905;-86
2023/03/18 03:22:16;;;;;;;;;;;;;;;8.18;52.07;100967.41;5043528;28;19905;-86
2023/03/18 03:25:25;;;;;;;;;;;;;;;8.22;51.77;100963.00;5034554;28;19905;-86
2023/03/18 03:28:17;;;;;;;;;;;;;;;8.18;51.66;100960.84;5042191;23;19906;-85
2023/03/18 03:31:09;;;;;;;;;;;;;;;8.32;51.22;100963.69;5007794;28;19902;-85
2023/03/18 03:34:01;;;;;;;;;;;;;;;8.29;51.54;100958.81;5008434;28;19902;-87
2023/03/18 03:36:51;;;;;;;;;;;;;;;8.33;50.92;100957.16;5010409;28;19897;-87
2023/03/18 03:39:44;;;;;;;;;;;;;;;8.30;50.48;100955.03;4998912;28;19898;-87
2023/03/18 03:42:40;;;;;;;;;;;;;;;8.19;50.88;100950.84;5016430;28;19898;-86
2023/03/18 03:45:35;;;;;;;;;;;;;;;8.20;50.65;100949.75;5029839;28;19898;-87
2023/03/18 03:48:25;;;;;;;;;;;;;;;8.11;51.21;100951.50;5013850;28;19897;-86
2023/03/18 03:51:14;;;;;;;;;;;;;;;8.25;51.00;100957.78;5024656;28;19901;-85
2023/03/18 03:54:08;;;;;;;;;;;;;;;8.22;51.12;100954.88;5201692;23;19921;-86
2023/03/18 04:00:03;;;;;;;;;;;;;;;8.35;51.23;100957.66;5012441;28;19906;-87
2023/03/18 04:03:19;;;;;;;;;;;;;;;8.39;50.84;100942.44;5010616;28;19901;-85
2023/03/18 04:06:10;;;;;;;;;;;;;;;8.24;51.16;100958.06;4980580;28;19897;-86
2023/03/18 04:09:04;;;;;;;;;;;;;;;8.03;51.31;100958.38;4985064;28;19902;-86
2023/03/18 04:11:54;;;;;;;;;;;;;;;8.13;51.76;100952.00;4973478;28;19911;-82
2023/03/18 04:14:46;;;;;;;;;;;;;;;7.97;51.94;100948.72;4987389;28;19907;-84
2023/03/18 04:17:34;;;;;;;;;;;;;;;7.83;52.46;100950.53;5151436;22;19909;-86
2023/03/18 04:20:27;;;;;;;;;;;;;;;7.89;52.00;100953.97;5048242;28;19901;-84
2023/03/18 04:23:19;;;;;;;;;;;;;;;7.85;52.25;100948.34;5042909;28;19917;-83
2023/03/18 04:26:11;;;;;;;;;;;;;;;7.98;52.32;100946.78;5008647;28;19922;-82
2023/03/18 04:29:05;;;;;;;;;;;;;;;8.02;51.99;100953.25;5028820;28;19905;-82
2023/03/18 04:31:56;;;;;;;;;;;;;;;8.12;51.31;100955.81;5037474;28;19904;-82
2023/03/18 04:34:45;;;;;;;;;;;;;;;8.03;51.72;100949.44;5049946;28;19905;-82
2023/03/18 04:37:37;;;;;;;;;;;;;;;8.06;51.15;100954.28;5015941;28;19925;-82
2023/03/18 04:40:27;;;;;;;;;;;;;;;7.93;51.47;100947.69;5037921;28;19910;-82
2023/03/18 04:43:25;;;;;;;;;;;;;;;7.90;52.03;100950.16;5030958;28;19921;-82
2023/03/18 04:49:09;;;;;;;;;;;;;;;8.08;51.67;100952.88;5002682;28;19918;-84
2023/03/18 04:52:00;;;;;;;;;;;;;;;7.84;51.52;100954.03;5008671;28;19906;-85
2023/03/18 04:54:54;;;;;;;;;;;;;;;7.68;52.03;100954.22;4989614;28;19906;-84
2023/03/18 04:57:44;;;;;;;;;;;;;;;7.82;51.76;100956.25;4987339;28;19925;-85
2023/03/18 05:00:34;;;;;;;;;;;;;;;7.63;52.41;100950.78;4976648;28;19909;-84
2023/03/18 05:03:37;;;;;;;;;;;;;;;7.55;52.80;100960.34;5002629;28;19921;-84
2023/03/18 05:06:25;;;;;;;;;;;;;;;7.53;52.91;100951.72;4989403;28;19926;-84
2023/03/18 05:09:19;;;;;;;;;;;;;;;7.50;53.15;100949.59;4994131;28;19918;-85
2023/03/18 05:20:57;;;;;;;;;;;;;;;7.66;52.97;100961.84;5769667;23;19910;-87
2023/03/18 05:23:47;;;;;;;;;;;;;;;7.70;52.78;100960.16;5002386;28;19913;-87
2023/03/18 05:38:19;;;;;;;;;;;;;;;7.54;53.29;100966.84;5021577;28;19906;-83
2023/03/18 05:41:12;;;;;;;;;;;;;;;7.44;53.48;100968.88;5019167;28;19910;-85
2023/03/18 05:44:04;;;;;;;;;;;;;;;7.45;53.59;100976.72;5056733;23;19905;-85
2023/03/18 05:46:58;;;;;;;;;;;;;;;7.35;54.07;100968.72;4996020;28;19914;-85
2023/03/18 05:50:00;;;;;;;;;;;;;;;7.32;54.22;100961.97;4998263;28;19905;-85
2023/03/18 05:52:52;;;;;;;;;;;;;;;7.24;54.70;100964.50;5031263;28;19929;-85
2023/03/18 05:55:42;;;;;;;;;;;;;;;7.26;54.64;100965.03;5002197;28;19906;-86
2023/03/18 05:58:33;;;;;;;;;;;;;;;7.26;54.79;100967.72;5083977;23;19905;-85
2023/03/18 06:01:36;;;;;;;;;;;;;;;7.24;54.58;100967.19;5031488;28;19929;-86
2023/03/18 06:04:25;;;;;;;;;;;;;;;7.29;53.95;100967.16;5021623;28;20412;-81
2023/03/18 06:07:41;;;;;;;;;;;;;;;7.11;54.32;100967.88;4994811;28;19917;-81
2023/03/18 06:10:28;;;;;;;;;;;;;;;7.14;54.49;100968.13;4997984;28;19914;-82
2023/03/18 06:13:18;;;;;;;;;;;;;;;7.11;54.42;100976.00;5010327;28;19902;-82
2023/03/18 06:16:10;;;;;;;;;;;;;;;7.25;54.16;100976.94;5025596;28;19929;-84
2023/03/18 06:18:57;;;;;;;;;;;;;;;7.35;53.92;100978.72;5015001;28;19905;-82
2023/03/18 06:21:50;;;;;;;;;;;;;;;7.38;54.04;100970.81;5001011;28;19921;-81
2023/03/18 06:24:42;;;;;;;;;;;;;;;7.41;54.23;100980.28;5004839;28;19906;-84
2023/03/18 06:27:31;;;;;;;;;;;;;;;7.52;53.52;100979.84;5025222;28;19905;-84
2023/03/18 06:30:20;;;;;;;;;;;;;;;7.62;53.58;100987.06;5012990;28;19906;-82
2023/03/18 06:33:09;;;;;;;;;;;;;;;7.71;53.30;100988.84;5022133;28;19909;-82
2023/03/18 06:35:58;;;;;;;;;;;;;;;7.78;53.17;100988.47;5011351;28;19910;-84
2023/03/18 06:38:44;;;;;;;;;;;;;;;7.74;53.42;100992.88;5007885;28;19917;-84
2023/03/18 06:41:35;;;;;;;;;;;;;;;7.77;53.13;100991.50;5009171;28;19909;-85
2023/03/18 06:44:54;;;;;;;;;;;;;;;7.69;53.94;100998.34;5019334;28;19926;-86
2023/03/18 06:47:48;;;;;;;;;;;;;;;7.80;53.90;100999.84;5011235;28;19910;-84
2023/03/18 06:51:04;;;;;;;;;;;;;;;7.83;54.01;100993.03;5003182;28;19929;-84
2023/03/18 06:53:59;;;;;;;;;;;;;;;7.99;53.08;100991.75;5006466;28;19905;-84
2023/03/18 06:56:53;;;;;;;;;;;;;;;8.13;53.01;100998.03;5313238;23;19905;-82
2023/03/18 06:59:44;;;;;;;;;;;;;;;8.19;52.68;101005.00;5033577;28;19905;-86
2023/03/18 07:29:24;;;;;;;;;;;;;;;9.55;50.63;101017.47;4942198;29;19923;-82
2023/03/18 07:32:39;;;;;;;;;;;;;;;9.70;50.14;101022.59;4944310;29;19923;-82
2023/03/18 08:17:49;;;;;;;;;;;;;;;10.29;52.32;101057.78;4947297;29;19930;-78
2023/03/18 08:20:41;;;;;;;;;;;;;;;10.48;52.03;101057.66;4925690;29;19922;-78
2023/03/18 08:23:30;;;;;;;;;;;;;;;10.75;51.54;101059.50;4930151;29;19915;-81
2023/03/18 08:26:22;;;;;;;;;;;;;;;10.79;51.72;101059.66;5004295;23;19925;-80
2023/03/18 08:29:14;;;;;;;;;;;;;;;10.69;51.88;101066.16;4966241;28;19918;-79
2023/03/18 08:32:06;;;;;;;;;;;;;;;10.94;51.69;101071.00;4975448;28;19918;-72
2023/03/18 08:34:58;;;;;;;;;;;;;;;12.16;50.39;101067.81;4969491;28;19914;-71
2023/03/18 08:37:50;;;;;;;;;;;;;;;12.54;48.35;101070.78;4982737;28;19918;-72
2023/03/18 08:40:40;;;;;;;;;;;;;;;11.99;49.16;101069.34;4978298;28;20309;-72
2023/03/18 08:43:30;;;;;;;;;;;;;;;12.83;49.10;101068.22;4988498;28;19918;-76
2023/03/18 08:46:22;;;;;;;;;;;;;;;11.37;51.29;101065.06;4979251;28;19918;-74
2023/03/18 08:49:14;;;;;;;;;;;;;;;12.05;49.99;101064.56;4970860;28;19914;-73
2023/03/18 08:52:06;;;;;;;;;;;;;;;12.85;48.07;101068.66;4975886;28;19918;-73
2023/03/18 08:54:58;;;;;;;;;;;;;;;12.44;47.74;101063.69;4977884;28;20373;-73
2023/03/18 08:57:50;;;;;;;;;;;;;;;12.52;48.19;101070.28;4962330;28;20365;-74
2023/03/18 09:00:43;;;;;;;;;;;;;;;13.28;47.64;101076.88;4966057;28;19914;-73
2023/03/18 09:03:34;;;;;;;;;;;;;;;13.90;45.83;101070.88;4978353;28;19914;-74
2023/03/18 09:06:26;;;;;;;;;;;;;;;13.81;44.45;101068.19;4960994;28;19918;-74
2023/03/18 09:09:18;;;;;;;;;;;;;;;13.60;44.21;101068.09;4974573;28;19914;-76
2023/03/18 09:12:10;;;;;;;;;;;;;;;12.93;45.75;101076.06;4973512;28;19927;-73
2023/03/18 09:15:02;;;;;;;;;;;;;;;12.67;46.69;101067.06;4973852;28;19914;-73
2023/03/18 09:17:54;;;;;;;;;;;;;;;13.15;45.96;101072.41;4985460;28;19914;-73
2023/03/18 09:20:46;;;;;;;;;;;;;;;13.52;44.31;101063.47;4979601;28;19914;-76
2023/03/18 09:23:41;;;;;;;22.48;10.30;;;;;;;14.19;43.64;101068.16;4982251;28;20425;-77
2023/03/18 09:26:33;;;;;;;14.93;9.67;;;;;;;13.35;46.00;101068.19;4975654;28;20039;-76
2023/03/18 09:29:27;;;;;;;23.40;10.85;;;;;;;13.59;45.22;101065.69;4976987;28;20402;-77
2023/03/18 09:32:19;;;;;;;21.10;11.15;;;;;;;13.95;44.25;101059.75;4964966;28;20043;-79
2023/03/18 09:35:11;;;;;;;26.38;11.20;;;;;;;13.00;46.40;101059.22;4969536;28;20043;-74
2023/03/18 09:38:07;;;;;;;19.05;11.52;;;;;;;12.79;47.11;101056.34;4959324;28;20043;-74
2023/03/18 09:41:29;;;;;;;15.20;10.10;;;;;;;12.81;47.22;101063.06;4990404;28;20043;-79
2023/03/18 09:44:34;;;;;;;17.02;11.93;;;;;;;12.99;46.74;101060.34;4991632;28;20043;-81
2023/03/18 09:47:26;;;;;;;;;;;;;;;12.93;47.48;101064.34;4981905;28;20039;-75
2023/03/18 09:50:42;;;;;;;;;;;;;;;13.17;46.47;101064.66;4976932;28;19918;-79
2023/03/18 09:53:44;;;;;;;23.98;13.10;;;;;;;12.99;47.18;101063.88;4968752;28;20464;-80
2023/03/18 09:56:39;;;;;;;57.95;27.77;;;;;;;13.68;45.01;101066.47;4982119;28;20522;-80
2023/03/18 09:59:43;;;;;;;12.68;8.15;;;;;;;13.65;44.81;101065.19;4967593;28;20059;-79
2023/03/18 10:02:38;;;;;;;;;;;;;;;14.01;44.49;101066.66;4963530;28;20049;-78
2023/03/18 10:05:36;;;;;;;;;;;;;;;14.06;44.26;101069.19;4971800;28;19914;-78
2023/03/18 10:08:49;;;;;;;;;;;;;;;14.45;44.45;101055.16;4976966;28;19914;-77
2023/03/18 10:11:41;;;;;;;;;;;;;;;14.12;43.60;101052.25;4979048;28;19922;-78
2023/03/18 10:14:46;;;;;;;;;;;;;;;13.86;43.86;101050.81;4979403;28;19914;-77
2023/03/18 10:17:39;;;;;;;;;;;;;;;13.96;42.70;101058.63;4967275;28;19914;-78
2023/03/18 10:20:37;;;;;;;;;;;;;;;14.23;43.06;101066.34;4955156;28;19914;-77
2023/03/18 10:23:47;;;;;;;;;;;;;;;14.54;42.42;101053.13;4970153;28;19918;-78
2023/03/18 10:26:43;;;;;;;;;;;;;;;14.62;41.51;101053.41;4963595;28;20294;-77
2023/03/18 10:29:36;;;;;;;;;;;;;;;14.18;42.65;101044.66;4955891;28;19915;-77
2023/03/18 10:32:41;;;;;;;;;;;;;;;14.69;42.10;101049.00;4978454;28;19919;-77
2023/03/18 10:35:46;;;;;;;;;;;;;;;14.67;41.56;101050.47;4961867;28;19914;-77
2023/03/18 10:38:40;;;;;;;;;;;;;;;14.48;42.03;101043.53;4973704;28;19918;-79
2023/03/18 10:41:35;;;;;;;;;;;;;;;14.73;40.74;101043.69;4981759;28;19918;-78
2023/03/18 10:44:30;;;;;;;;;;;;;;;15.14;39.99;101042.78;4985262;28;19914;-76
2023/03/18 10:47:28;;;;;;;;;;;;;;;15.09;41.07;101040.25;4964041;28;19918;-78
2023/03/18 10:50:23;;;;;;;;;;;;;;;15.27;40.07;101053.47;4974288;28;19914;-79
2023/03/18 10:53:17;;;;;;;;;;;;;;;15.34;39.86;101044.66;4976081;28;19923;-80
2023/03/18 10:56:13;;;;;;;;;;;;;;;15.61;38.39;101046.81;4961053;28;20378;-80
2023/03/18 10:59:07;;;;;;;;;;;;;;;16.07;38.87;101039.28;4985625;28;19914;-83
2023/03/18 11:02:12;;;;;;;;;;;;;;;17.26;36.98;101043.19;4971129;28;20305;-78
2023/03/18 11:05:03;;;;;;;;;;;;;;;21.62;29.41;101051.97;4979173;28;19917;-79
2023/03/18 11:08:07;;;;;;;;;;;;;;;23.70;24.79;101046.69;4973951;28;19910;-79
2023/03/18 11:10:59;;;;;;;;;;;;;;;26.83;21.50;101058.41;4978990;28;19914;-79
2023/03/18 11:13:51;;;;;;;;;;;;;;;28.95;19.05;101052.50;4974453;28;19922;-81
2023/03/18 11:16:46;;;;;;;;;;;;;;;28.27;19.14;101047.44;4977109;28;19914;-80
2023/03/18 11:19:40;;;;;;;;;;;;;;;28.52;19.13;101055.38;4992903;28;19918;-80
2023/03/18 11:22:31;;;;;;;;;;;;;;;27.97;19.25;101049.16;4980397;28;19914;-80
2023/03/18 11:25:24;;;;;;;;;;;;;;;29.91;17.45;101051.09;4995805;28;19914;-80
2023/03/18 11:28:25;;;;;;;;;;;;;;;28.39;18.90;101049.63;4979081;28;19914;-79
2023/03/18 11:31:20;;;;;;;;;;;;;;;28.75;18.31;101044.91;4990298;28;19913;-79
2023/03/18 11:34:17;;;;;;;;;;;;;;;32.81;14.90;101053.22;4985516;28;19922;-80
2023/03/18 11:37:11;;;;;;;;;;;;;;;32.66;14.81;101044.50;4976243;28;20297;-79
2023/03/18 11:40:22;;;;;;;;;;;;;;;34.53;13.02;101046.50;4973769;28;19914;-80
2023/03/18 11:43:18;;;;;;;;;;;;;;;32.66;14.35;101040.91;4970625;28;19914;-81
2023/03/18 11:46:13;;;;;;;;;;;;;;;34.03;13.31;101036.59;4987740;28;20301;-79
2023/03/18 11:49:05;;;;;;;;;;;;;;;33.41;14.74;101033.16;4993037;28;19914;-79
2023/03/18 11:52:07;;;;;;;;;;;;;;;35.92;12.42;101026.47;4968361;28;19918;-80
2023/03/18 11:55:05;;;;;;;;;;;;;;;33.35;14.04;101029.38;4973961;28;19913;-80
2023/03/18 11:58:14;;;;;;;;;;;;;;;33.42;13.94;101018.56;4962789;28;20939;-79
2023/03/18 12:01:14;;;;;;;;;;;;;;;31.56;15.11;101018.59;4976929;28;20384;-79
2023/03/18 12:04:20;;;;;;;;;;;;;;;32.67;14.11;101014.28;4967328;28;19914;-80
2023/03/18 12:07:21;;;;;;;;;;;;;;;31.73;14.35;101003.19;4987597;28;19914;-79
2023/03/18 12:10:18;;;;;;;;;;;;;;;31.67;14.71;100996.56;4992087;28;19925;-80
2023/03/18 12:13:27;;;;;;;;;;;;;;;33.84;13.45;100996.28;4977729;28;19918;-80
2023/03/18 12:16:32;;;;;;;;;;;;;;;35.17;12.47;101001.91;4975700;28;19914;-80
2023/03/18 12:19:41;;;;;;;;;;;;;;;36.12;11.68;101001.13;4974140;28;19914;-80
2023/03/18 12:22:38;;;;;;;;;;;;;;;34.88;12.56;100998.09;4995320;28;19917;-80
2023/03/18 12:25:30;;;;;;;;;;;;;;;32.91;14.28;100984.41;4961727;28;19914;-81
2023/03/18 12:28:31;;;;;;;;;;;;;;;30.63;15.52;100977.78;4974530;28;19914;-83
2023/03/18 12:31:28;;;;;;;;;;;;;;;33.31;13.61;100977.97;4984778;28;19918;-83
2023/03/18 12:34:32;;;;;;;;;;;;;;;32.44;13.99;100975.31;4958754;28;19918;-84
2023/03/18 12:37:27;;;;;;;;;;;;;;;34.91;12.45;100980.94;4974267;28;19914;-81
2023/03/18 12:40:32;;;;;;;;;;;;;;;33.97;12.59;100969.94;4974316;28;19914;-82
2023/03/18 12:43:53;;;;;;;;;;;;;;;36.14;11.44;100970.31;4968257;28;19926;-80
2023/03/18 13:29:15;;;;;;;;;;;;;;;37.77;10.19;100927.00;5109189;27;19916;-80
2023/03/18 13:32:47;;;;;;;;;;;;;;;38.38;9.60;100921.16;5107070;28;20386;-80
2023/03/18 13:36:03;;;;;;;;;;;;;;;34.55;11.83;100916.06;5077435;28;19932;-79
2023/03/18 13:39:03;;;;;;;;;;;;;;;34.46;12.10;100922.53;5084726;28;19916;-79
2023/03/18 13:42:06;;;;;;;;;;;;;;;35.73;11.07;100928.81;5096532;28;19917;-80
2023/03/18 13:45:01;;;;;;;;;;;;;;;34.54;11.75;100917.34;5094868;28;19916;-79
2023/03/18 13:47:58;;;;;;;;;;;;;;;29.04;16.35;100915.47;5102191;28;19924;-80
2023/03/18 13:50:48;;;;;;;;;;;;;;;26.16;19.41;100905.78;5111590;28;19926;-79
2023/03/18 13:53:42;;;;;;;;;;;;;;;24.84;20.84;100901.81;5096109;28;19916;-80
2023/03/18 13:56:33;;;;;;;;;;;;;;;23.27;22.77;100895.16;5096734;28;20407;-80
2023/03/18 13:59:50;;;;;;;;;;;;;;;22.70;23.77;100885.97;5099526;28;19928;-79
2023/03/18 14:02:46;;;;;;;;;;;;;;;22.49;24.15;100883.94;5092659;28;19917;-79
2023/03/18 14:05:41;;;;;;;;;;;;;;;22.38;23.18;100878.38;5092823;28;19916;-79
2023/03/18 14:08:40;;;;;;;;;;;;;;;22.37;23.75;100875.97;5099110;28;19925;-79
2023/03/18 14:11:46;;;;;;;;;;;;;;;21.44;24.75;100876.66;5112358;28;20294;-79
2023/03/18 14:14:57;;;;;;;;;;;;;;;21.75;24.97;100870.53;5092268;28;19916;-80
2023/03/18 14:17:47;;;;;;;;;;;;;;;21.48;25.83;100874.72;5098033;28;19917;-79
2023/03/18 14:20:41;;;;;;;;;;;;;;;21.12;26.21;100882.75;5096719;28;19916;-79
2023/03/18 14:23:38;;;;;;;;;;;;;;;20.97;26.64;100869.16;5099619;28;20330;-79
2023/03/18 14:26:30;;;;;;;;;;;;;;;20.48;26.78;100864.72;5094754;28;20387;-80
2023/03/18 14:29:30;;;;;;;;;;;;;;;19.91;27.50;100868.78;5140573;22;19937;-88
2023/03/18 14:32:38;;;;;;;;;;;;;;;19.93;27.25;100869.19;5040119;28;19921;-85
2023/03/18 14:35:29;;;;;;;;;;;;;;;20.11;27.57;100874.94;5052378;28;19917;-86
2023/03/18 14:38:31;;;;;;;;;;;;;;;20.19;26.73;100871.88;5054347;28;19917;-87
2023/03/18 14:41:23;;;;;;;;;;;;;;;20.46;26.54;100864.31;5021471;28;20297;-84
2023/03/18 14:44:20;;;;;;;;;;;;;;;20.51;26.30;100858.47;5018912;28;19917;-86
2023/03/18 14:47:19;;;;;;;;;;;;;;;20.45;26.15;100860.78;5017075;28;19921;-85
2023/03/18 14:50:16;;;;;;;;;;;;;;;20.51;26.30;100860.44;5030404;28;19918;-86
2023/03/18 14:53:10;;;;;;;;;;;;;;;20.45;26.79;100855.25;5031058;28;19921;-86
2023/03/18 14:56:01;;;;;;;;;;;;;;;20.37;26.64;100858.28;5027833;28;19917;-86
2023/03/18 14:58:56;;;;;;;;;;;;;;;20.40;26.42;100852.81;5014292;28;19918;-86
2023/03/18 15:01:52;;;;;;;;;;;;;;;20.40;26.64;100843.72;5009891;28;19918;-86
2023/03/18 15:04:51;;;;;;;;;;;;;;;20.17;26.78;100832.78;5013427;28;19918;-86
2023/03/18 15:07:43;;;;;;;;;;;;;;;20.35;27.41;100846.84;4998012;28;19922;-86
2023/03/18 15:10:35;;;;;;;;;;;;;;;20.38;27.16;100857.13;5008017;28;19917;-86
2023/03/18 15:13:27;;;;;;;;;;;;;;;20.15;27.04;100846.19;4999132;28;19918;-86
2023/03/18 15:16:19;;;;;;;;;;;;;;;20.14;27.24;100852.09;5012322;28;20389;-87
2023/03/18 15:19:12;;;;;;;;;;;;;;;19.90;27.43;100845.09;5033642;28;19917;-87
2023/03/18 15:22:03;;;;;;;;;;;;;;;19.81;27.56;100845.34;5020126;28;19918;-87
2023/03/18 15:24:52;;;;;;;;;;;;;;;19.85;27.92;100843.47;5010103;28;20512;-88
2023/03/18 15:27:44;;;;;;;;;;;;;;;19.91;28.36;100850.22;5023569;28;19921;-87
2023/03/18 15:30:36;;;;;;;;;;;;;;;19.65;28.83;100839.25;5017987;28;19918;-88
2023/03/18 15:33:30;;;;;;;;;;;;;;;19.42;29.15;100839.28;5038286;28;19925;-88
2023/03/18 15:36:20;;;;;;;;;;;;;;;19.34;29.39;100834.84;5017142;28;19917;-87
2023/03/18 15:39:22;;;;;;;;;;;;;;;19.24;29.36;100832.72;5001807;28;19918;-88
2023/03/18 15:42:24;;;;;;;;;;;;;;;19.17;29.91;100825.13;5017384;28;19918;-87
2023/03/18 15:45:22;;;;;;;;;;;;;;;19.25;29.57;100817.72;5017967;28;20381;-87
2023/03/18 15:48:30;;;;;;;;;;;;;;;19.36;28.81;100829.72;5011222;28;19921;-87
2023/03/18 15:51:33;;;;;;;;;;;;;;;18.90;28.98;100815.22;5008247;28;20289;-88
2023/03/18 15:54:28;;;;;;;;;;;;;;;18.93;29.64;100822.78;5008561;28;20366;-87
2023/03/18 15:57:44;;;;;;;;;;;;;;;19.02;28.80;100815.03;5016716;28;19918;-87
2023/03/18 16:00:36;;;;;;;;;;;;;;;19.08;28.89;100813.56;4996316;28;19918;-88
2023/03/18 16:03:29;;;;;;;;;;;;;;;19.00;28.86;100805.53;5015204;28;19922;-87
2023/03/18 16:06:21;;;;;;;;;;;;;;;18.94;29.30;100812.53;5001385;28;19918;-88
2023/03/18 16:09:21;;;;;;;;;;;;;;;18.78;28.83;100816.22;5013080;28;19922;-88
2023/03/18 16:12:23;;;;;;;;;;;;;;;18.68;28.72;100818.78;5014509;28;19917;-88
2023/03/18 16:15:25;;;;;;;;;;;;;;;18.53;29.01;100830.69;5008073;28;19925;-87
2023/03/18 16:18:17;;;;;;;;;;;;;;;18.66;28.79;100821.91;5010829;28;19917;-87
2023/03/18 16:21:10;;;;;;;;;;;;;;;18.60;28.60;100828.88;5020304;28;20392;-87
2023/03/18 16:24:02;;;;;;;;;;;;;;;18.58;28.80;100847.75;5019912;28;19917;-87
2023/03/18 16:26:51;;;;;;;;;;;;;;;18.50;28.86;100847.94;5006441;28;19918;-88
2023/03/18 16:29:41;;;;;;;;;;;;;;;18.49;28.92;100836.13;5017102;28;19921;-87
2023/03/18 16:32:34;;;;;;;;;;;;;;;18.49;28.77;100838.88;5026925;28;20492;-88
2023/03/18 16:35:23;;;;;;;;;;;;;;;18.37;28.61;100830.78;5020213;28;19917;-87
2023/03/18 16:38:16;;;;;;;;;;;;;;;18.30;29.57;100844.41;5019850;28;20301;-87
2023/03/18 16:41:08;;;;;;;;;;;;;;;18.33;30.21;100849.22;5019051;28;19921;-87
2023/03/18 16:43:58;;;;;;;;;;;;;;;18.30;30.71;100850.72;5006012;28;19917;-87
2023/03/18 16:46:50;;;;;;;;;;;;;;;18.26;31.07;100847.09;5012962;28;19921;-87
2023/03/18 16:49:42;;;;;;;;;;;;;;;18.15;31.46;100856.31;5030523;28;19921;-86
2023/03/18 16:52:34;;;;;;;;;;;;;;;18.20;31.45;100861.53;5019634;28;19917;-85
2023/03/18 16:55:27;;;;;;;;;;;;;;;18.19;31.70;100868.19;5019923;28;19917;-86
2023/03/18 16:58:19;;;;;;;;;;;;;;;18.05;31.86;100863.19;5019374;28;19917;-87
2023/03/18 17:01:10;;;;;;;;;;;;;;;18.03;32.15;100884.00;5019538;28;19918;-87
2023/03/18 17:04:02;;;;;;;;;;;;;;;18.01;32.51;100886.28;5012437;28;20308;-87
2023/03/18 17:06:52;;;;;;;;;;;;;;;17.97;32.55;100879.91;5005552;28;20313;-86
2023/03/18 17:09:41;;;;;;;;;;;;;;;17.93;32.98;100885.31;5016302;28;19922;-87
2023/03/18 17:12:33;;;;;;;;;;;;;;;17.80;33.37;100890.19;5013523;28;19917;-87
2023/03/18 17:15:25;;;;;;;;;;;;;;;17.76;33.56;100891.25;5019024;28;19917;-86
2023/03/18 17:18:17;;;;;;;;;;;;;;;17.66;33.34;100897.31;5019070;28;19917;-87
2023/03/18 17:21:06;;;;;;;;;;;;;;;17.61;33.38;100897.59;5012184;28;20289;-87
2023/03/18 17:23:57;;;;;;;;;;;;;;;17.45;33.46;100898.38;5012325;28;19922;-87
2023/03/18 17:26:47;;;;;;;;;;;;;;;17.36;33.58;100899.72;5018789;28;20399;-86
2023/03/18 17:29:40;;;;;;;;;;;;;;;17.35;33.43;100903.63;5012737;28;19922;-85
2023/03/18 17:32:31;;;;;;;;;;;;;;;17.20;33.71;100904.44;5031049;28;20387;-86
2023/03/18 17:35:24;;;;;;;;;;;;;;;17.17;33.75;100905.94;5029154;28;19917;-87
2023/03/18 17:38:16;;;;;;;;;;;;;;;17.13;33.83;100909.75;5012624;28;20392;-86
2023/03/18 17:41:15;;;;;;;;;;;;;;;17.10;33.87;100914.81;5025154;28;19918;-86
2023/03/18 17:44:13;;;;;;;;;;;;;;;17.09;33.90;100923.41;5010111;28;20373;-87
2023/03/18 17:47:05;;;;;;;;;;;;;;;17.01;33.98;100927.13;5010704;28;19917;-86
2023/03/18 17:49:56;;;;;;;;;;;;;;;16.95;34.10;100920.28;4995240;28;19922;-87
2023/03/18 17:52:47;;;;;;;;;;;;;;;16.87;34.10;100915.75;5007159;28;19918;-86
2023/03/18 17:55:39;;;;;;;;;;;;;;;16.79;34.33;100919.47;4997052;28;20401;-86
2023/03/18 17:58:31;;;;;;;;;;;;;;;16.82;34.33;100932.47;4994703;28;19918;-85
2023/03/18 18:01:23;;;;;;;;;;;;;;;16.83;34.75;100940.38;5005293;28;19918;-84
2023/03/18 18:04:16;;;;;;;;;;;;;;;16.74;34.03;100942.50;5001532;28;19917;-85
2023/03/18 18:07:16;;;;;;;;;;;;;;;16.69;34.19;100937.25;5027464;28;19917;-86
2023/03/18 18:10:08;;;;;;;;;;;;;;;16.51;34.77;100933.16;5005218;28;20308;-85